Aviation Digital Data Service (ADDS)

Output produced by METARs form (0305 UTC 22 April 2019)
found at http://www.aviationweather.gov/metar/data/
 
METAR text: ESPA 220250Z AUTO 00000KT 9999 NCD 01/M00 Q1017
Conditions at: ESPA (KALLAX/LULEA (AF, SE) observed 0250 UTC 22 April 2019
Temperature: 1.0°C (34°F)
Dewpoint: 0.0°C (32°F) [RH = 93%]
Pressure (altimeter): 30.03 inches Hg (1017.0 mb)
Winds: calm
Visibility: 6 or more miles (10+ km)
Ceiling: at least 12,000 feet AGL
Clouds: sky clear below 12,000 feet AGL
Weather: no significant weather observed at this time

METAR text: ESPA 220220Z AUTO 00000KT 9999 NCD 01/00 Q1017
Conditions at: ESPA (KALLAX/LULEA (AF, SE) observed 0220 UTC 22 April 2019
Temperature: 1.0°C (34°F)
Dewpoint: 0.0°C (32°F) [RH = 93%]
Pressure (altimeter): 30.03 inches Hg (1017.0 mb)
Winds: calm
Visibility: 6 or more miles (10+ km)
Ceiling: at least 12,000 feet AGL
Clouds: sky clear below 12,000 feet AGL
Weather: no significant weather observed at this time

METAR text: ESPA 220150Z AUTO 00000KT 9999 NCD 03/01 Q1017
Conditions at: ESPA (KALLAX/LULEA (AF, SE) observed 0150 UTC 22 April 2019
Temperature: 3.0°C (37°F)
Dewpoint: 1.0°C (34°F) [RH = 87%]
Pressure (altimeter): 30.03 inches Hg (1017.0 mb)
Winds: calm
Visibility: 6 or more miles (10+ km)
Ceiling: at least 12,000 feet AGL
Clouds: sky clear below 12,000 feet AGL
Weather: no significant weather observed at this time

METAR text: ESPA 220120Z AUTO VRB01KT 9999 NCD 03/01 Q1017
Conditions at: ESPA (KALLAX/LULEA (AF, SE) observed 0120 UTC 22 April 2019
Temperature: 3.0°C (37°F)
Dewpoint: 1.0°C (34°F) [RH = 87%]
Pressure (altimeter): 30.03 inches Hg (1017.0 mb)
Winds: variable direction winds at 1 MPH (1 knots; 0.5 m/s)
Visibility: 6 or more miles (10+ km)
Ceiling: at least 12,000 feet AGL
Clouds: sky clear below 12,000 feet AGL
Weather: no significant weather observed at this time

METAR text: ESPA 220050Z AUTO 23002KT 9999 NCD 04/02 Q1017
Conditions at: ESPA (KALLAX/LULEA (AF, SE) observed 0050 UTC 22 April 2019
Temperature: 4.0°C (39°F)
Dewpoint: 2.0°C (36°F) [RH = 87%]
Pressure (altimeter): 30.03 inches Hg (1017.0 mb)
Winds: from the SW (230 degrees) at 2 MPH (2 knots; 1.0 m/s)
Visibility: 6 or more miles (10+ km)
Ceiling: at least 12,000 feet AGL
Clouds: sky clear below 12,000 feet AGL
Weather: no significant weather observed at this time

METAR text: ESPA 220020Z AUTO 00000KT 9999 NCD 04/02 Q1017
Conditions at: ESPA (KALLAX/LULEA (AF, SE) observed 0020 UTC 22 April 2019
Temperature: 4.0°C (39°F)
Dewpoint: 2.0°C (36°F) [RH = 87%]
Pressure (altimeter): 30.03 inches Hg (1017.0 mb)
Winds: calm
Visibility: 6 or more miles (10+ km)
Ceiling: at least 12,000 feet AGL
Clouds: sky clear below 12,000 feet AGL
Weather: no significant weather observed at this time

METAR text: ESPA 212350Z AUTO 24001KT 9999 NCD 05/02 Q1017
Conditions at: ESPA (KALLAX/LULEA (AF, SE) observed 2350 UTC 21 April 2019
Temperature: 5.0°C (41°F)
Dewpoint: 2.0°C (36°F) [RH = 81%]
Pressure (altimeter): 30.03 inches Hg (1017.0 mb)
Winds: from the WSW (240 degrees) at 1 MPH (1 knots; 0.5 m/s)
Visibility: 6 or more miles (10+ km)
Ceiling: at least 12,000 feet AGL
Clouds: sky clear below 12,000 feet AGL
Weather: no significant weather observed at this time

METAR text: ESPA 212320Z AUTO 25005KT 9999 NCD 05/02 Q1017
Conditions at: ESPA (KALLAX/LULEA (AF, SE) observed 2320 UTC 21 April 2019
Temperature: 5.0°C (41°F)
Dewpoint: 2.0°C (36°F) [RH = 81%]
Pressure (altimeter): 30.03 inches Hg (1017.0 mb)
Winds: from the WSW (250 degrees) at 6 MPH (5 knots; 2.6 m/s)
Visibility: 6 or more miles (10+ km)
Ceiling: at least 12,000 feet AGL
Clouds: sky clear below 12,000 feet AGL
Weather: no significant weather observed at this time

METAR text: ESPA 212250Z AUTO 25004KT 9999 NCD 05/03 Q1016
Conditions at: ESPA (KALLAX/LULEA (AF, SE) observed 2250 UTC 21 April 2019
Temperature: 5.0°C (41°F)
Dewpoint: 3.0°C (37°F) [RH = 87%]
Pressure (altimeter): 30.00 inches Hg (1016.0 mb)
Winds: from the WSW (250 degrees) at 5 MPH (4 knots; 2.1 m/s)
Visibility: 6 or more miles (10+ km)
Ceiling: at least 12,000 feet AGL
Clouds: sky clear below 12,000 feet AGL
Weather: no significant weather observed at this time

METAR text: ESPA 212220Z AUTO 25004KT 9999 NCD 05/03 Q1016
Conditions at: ESPA (KALLAX/LULEA (AF, SE) observed 2220 UTC 21 April 2019
Temperature: 5.0°C (41°F)
Dewpoint: 3.0°C (37°F) [RH = 87%]
Pressure (altimeter): 30.00 inches Hg (1016.0 mb)
Winds: from the WSW (250 degrees) at 5 MPH (4 knots; 2.1 m/s)
Visibility: 6 or more miles (10+ km)
Ceiling: at least 12,000 feet AGL
Clouds: sky clear below 12,000 feet AGL
Weather: no significant weather observed at this time

METAR text: ESPA 212150Z AUTO 25006KT 9999 NCD 05/03 Q1016
Conditions at: ESPA (KALLAX/LULEA (AF, SE) observed 2150 UTC 21 April 2019
Temperature: 5.0°C (41°F)
Dewpoint: 3.0°C (37°F) [RH = 87%]
Pressure (altimeter): 30.00 inches Hg (1016.0 mb)
Winds: from the WSW (250 degrees) at 7 MPH (6 knots; 3.1 m/s)
Visibility: 6 or more miles (10+ km)
Ceiling: at least 12,000 feet AGL
Clouds: sky clear below 12,000 feet AGL
Weather: no significant weather observed at this time

METAR text: ESPA 212120Z AUTO 24005KT 9999 FEW170/// 06/03 Q1016
Conditions at: ESPA (KALLAX/LULEA (AF, SE) observed 2120 UTC 21 April 2019
Temperature: 6.0°C (43°F)
Dewpoint: 3.0°C (37°F) [RH = 81%]
Pressure (altimeter): 30.00 inches Hg (1016.0 mb)
Winds: from the WSW (240 degrees) at 6 MPH (5 knots; 2.6 m/s)
Visibility: 6 or more miles (10+ km)
Ceiling: at least 12,000 feet AGL
Clouds: few clouds at 17000 feet AGL
Weather: no significant weather observed at this time

METAR text: ESPA 212050Z AUTO 25005KT 9999 BKN170/// 07/03 Q1016
Conditions at: ESPA (KALLAX/LULEA (AF, SE) observed 2050 UTC 21 April 2019
Temperature: 7.0°C (45°F)
Dewpoint: 3.0°C (37°F) [RH = 76%]
Pressure (altimeter): 30.00 inches Hg (1016.0 mb)
Winds: from the WSW (250 degrees) at 6 MPH (5 knots; 2.6 m/s)
Visibility: 6 or more miles (10+ km)
Ceiling: 17000 feet AGL
Clouds: broken clouds at 17000 feet AGL
Weather: no significant weather observed at this time

METAR text: ESPA 212020Z 24005KT CAVOK 07/03 Q1016
Conditions at: ESPA (KALLAX/LULEA (AF, SE) observed 2020 UTC 21 April 2019
Temperature: 7.0°C (45°F)
Dewpoint: 3.0°C (37°F) [RH = 76%]
Pressure (altimeter): 30.00 inches Hg (1016.0 mb)
Winds: from the WSW (240 degrees) at 6 MPH (5 knots; 2.6 m/s)
Visibility: 6 or more miles (10+ km)
Ceiling: ceiling and visibility are OK
Clouds: unknown
Weather: no significant weather observed at this time

METAR text: ESPA 211950Z 25004KT 220V280 CAVOK 07/03 Q1016
Conditions at: ESPA (KALLAX/LULEA (AF, SE) observed 1950 UTC 21 April 2019
Temperature: 7.0°C (45°F)
Dewpoint: 3.0°C (37°F) [RH = 76%]
Pressure (altimeter): 30.00 inches Hg (1016.0 mb)
Winds: from the WSW (250 degrees) at 5 MPH (4 knots; 2.1 m/s)
Visibility: 6 or more miles (10+ km)
Ceiling: ceiling and visibility are OK
Clouds: unknown
Weather: no significant weather observed at this time

METAR text: ESPA 211920Z 23004KT CAVOK 07/03 Q1016
Conditions at: ESPA (KALLAX/LULEA (AF, SE) observed 1920 UTC 21 April 2019
Temperature: 7.0°C (45°F)
Dewpoint: 3.0°C (37°F) [RH = 76%]
Pressure (altimeter): 30.00 inches Hg (1016.0 mb)
Winds: from the SW (230 degrees) at 5 MPH (4 knots; 2.1 m/s)
Visibility: 6 or more miles (10+ km)
Ceiling: ceiling and visibility are OK
Clouds: unknown
Weather: no significant weather observed at this time

METAR text: ESPA 211850Z 22004KT 190V250 CAVOK 07/03 Q1016
Conditions at: ESPA (KALLAX/LULEA (AF, SE) observed 1850 UTC 21 April 2019
Temperature: 7.0°C (45°F)
Dewpoint: 3.0°C (37°F) [RH = 76%]
Pressure (altimeter): 30.00 inches Hg (1016.0 mb)
Winds: from the SW (220 degrees) at 5 MPH (4 knots; 2.1 m/s)
Visibility: 6 or more miles (10+ km)
Ceiling: ceiling and visibility are OK
Clouds: unknown
Weather: no significant weather observed at this time

METAR text: ESPA 211820Z 23005KT CAVOK 07/03 Q1016
Conditions at: ESPA (KALLAX/LULEA (AF, SE) observed 1820 UTC 21 April 2019
Temperature: 7.0°C (45°F)
Dewpoint: 3.0°C (37°F) [RH = 76%]
Pressure (altimeter): 30.00 inches Hg (1016.0 mb)
Winds: from the SW (230 degrees) at 6 MPH (5 knots; 2.6 m/s)
Visibility: 6 or more miles (10+ km)
Ceiling: ceiling and visibility are OK
Clouds: unknown
Weather: no significant weather observed at this time

METAR text: ESPA 211750Z 23004KT CAVOK 07/03 Q1016
Conditions at: ESPA (KALLAX/LULEA (AF, SE) observed 1750 UTC 21 April 2019
Temperature: 7.0°C (45°F)
Dewpoint: 3.0°C (37°F) [RH = 76%]
Pressure (altimeter): 30.00 inches Hg (1016.0 mb)
Winds: from the SW (230 degrees) at 5 MPH (4 knots; 2.1 m/s)
Visibility: 6 or more miles (10+ km)
Ceiling: ceiling and visibility are OK
Clouds: unknown
Weather: no significant weather observed at this time

METAR text: ESPA 211720Z 23007KT CAVOK 07/04 Q1015
Conditions at: ESPA (KALLAX/LULEA (AF, SE) observed 1720 UTC 21 April 2019
Temperature: 7.0°C (45°F)
Dewpoint: 4.0°C (39°F) [RH = 81%]
Pressure (altimeter): 29.97 inches Hg (1015.0 mb)
Winds: from the SW (230 degrees) at 8 MPH (7 knots; 3.6 m/s)
Visibility: 6 or more miles (10+ km)
Ceiling: ceiling and visibility are OK
Clouds: unknown
Weather: no significant weather observed at this time

METAR text: ESPA 211650Z 24005KT 210V270 CAVOK 07/03 Q1016
Conditions at: ESPA (KALLAX/LULEA (AF, SE) observed 1650 UTC 21 April 2019
Temperature: 7.0°C (45°F)
Dewpoint: 3.0°C (37°F) [RH = 76%]
Pressure (altimeter): 30.00 inches Hg (1016.0 mb)
Winds: from the WSW (240 degrees) at 6 MPH (5 knots; 2.6 m/s)
Visibility: 6 or more miles (10+ km)
Ceiling: ceiling and visibility are OK
Clouds: unknown
Weather: no significant weather observed at this time

METAR text: ESPA 211620Z 21006KT CAVOK 07/03 Q1016
Conditions at: ESPA (KALLAX/LULEA (AF, SE) observed 1620 UTC 21 April 2019
Temperature: 7.0°C (45°F)
Dewpoint: 3.0°C (37°F) [RH = 76%]
Pressure (altimeter): 30.00 inches Hg (1016.0 mb)
Winds: from the SSW (210 degrees) at 7 MPH (6 knots; 3.1 m/s)
Visibility: 6 or more miles (10+ km)
Ceiling: ceiling and visibility are OK
Clouds: unknown
Weather: no significant weather observed at this time

METAR text: ESPA 211550Z 21008KT CAVOK 07/03 Q1016
Conditions at: ESPA (KALLAX/LULEA (AF, SE) observed 1550 UTC 21 April 2019
Temperature: 7.0°C (45°F)
Dewpoint: 3.0°C (37°F) [RH = 76%]
Pressure (altimeter): 30.00 inches Hg (1016.0 mb)
Winds: from the SSW (210 degrees) at 9 MPH (8 knots; 4.1 m/s)
Visibility: 6 or more miles (10+ km)
Ceiling: ceiling and visibility are OK
Clouds: unknown
Weather: no significant weather observed at this time

METAR text: ESPA 211520Z 21007KT CAVOK 07/03 Q1016
Conditions at: ESPA (KALLAX/LULEA (AF, SE) observed 1520 UTC 21 April 2019
Temperature: 7.0°C (45°F)
Dewpoint: 3.0°C (37°F) [RH = 76%]
Pressure (altimeter): 30.00 inches Hg (1016.0 mb)
Winds: from the SSW (210 degrees) at 8 MPH (7 knots; 3.6 m/s)
Visibility: 6 or more miles (10+ km)
Ceiling: ceiling and visibility are OK
Clouds: unknown
Weather: no significant weather observed at this time

METAR text: ESPA 211450Z 21005KT CAVOK 07/03 Q1016
Conditions at: ESPA (KALLAX/LULEA (AF, SE) observed 1450 UTC 21 April 2019
Temperature: 7.0°C (45°F)
Dewpoint: 3.0°C (37°F) [RH = 76%]
Pressure (altimeter): 30.00 inches Hg (1016.0 mb)
Winds: from the SSW (210 degrees) at 6 MPH (5 knots; 2.6 m/s)
Visibility: 6 or more miles (10+ km)
Ceiling: ceiling and visibility are OK
Clouds: unknown
Weather: no significant weather observed at this time

METAR text: ESPA 211420Z 20004KT CAVOK 07/03 Q1016
Conditions at: ESPA (KALLAX/LULEA (AF, SE) observed 1420 UTC 21 April 2019
Temperature: 7.0°C (45°F)
Dewpoint: 3.0°C (37°F) [RH = 76%]
Pressure (altimeter): 30.00 inches Hg (1016.0 mb)
Winds: from the SSW (200 degrees) at 5 MPH (4 knots; 2.1 m/s)
Visibility: 6 or more miles (10+ km)
Ceiling: ceiling and visibility are OK
Clouds: unknown
Weather: no significant weather observed at this time

METAR text: ESPA 211350Z 19008KT CAVOK 08/03 Q1016
Conditions at: ESPA (KALLAX/LULEA (AF, SE) observed 1350 UTC 21 April 2019
Temperature: 8.0°C (46°F)
Dewpoint: 3.0°C (37°F) [RH = 71%]
Pressure (altimeter): 30.00 inches Hg (1016.0 mb)
Winds: from the S (190 degrees) at 9 MPH (8 knots; 4.1 m/s)
Visibility: 6 or more miles (10+ km)
Ceiling: ceiling and visibility are OK
Clouds: unknown
Weather: no significant weather observed at this time

METAR text: ESPA 211320Z 20008KT CAVOK 07/03 Q1016
Conditions at: ESPA (KALLAX/LULEA (AF, SE) observed 1320 UTC 21 April 2019
Temperature: 7.0°C (45°F)
Dewpoint: 3.0°C (37°F) [RH = 76%]
Pressure (altimeter): 30.00 inches Hg (1016.0 mb)
Winds: from the SSW (200 degrees) at 9 MPH (8 knots; 4.1 m/s)
Visibility: 6 or more miles (10+ km)
Ceiling: ceiling and visibility are OK
Clouds: unknown
Weather: no significant weather observed at this time

METAR text: ESPA 211250Z 19006KT CAVOK 06/03 Q1016
Conditions at: ESPA (KALLAX/LULEA (AF, SE) observed 1250 UTC 21 April 2019
Temperature: 6.0°C (43°F)
Dewpoint: 3.0°C (37°F) [RH = 81%]
Pressure (altimeter): 30.00 inches Hg (1016.0 mb)
Winds: from the S (190 degrees) at 7 MPH (6 knots; 3.1 m/s)
Visibility: 6 or more miles (10+ km)
Ceiling: ceiling and visibility are OK
Clouds: unknown
Weather: no significant weather observed at this time

METAR text: ESPA 211220Z 19006KT CAVOK 06/03 Q1016
Conditions at: ESPA (KALLAX/LULEA (AF, SE) observed 1220 UTC 21 April 2019
Temperature: 6.0°C (43°F)
Dewpoint: 3.0°C (37°F) [RH = 81%]
Pressure (altimeter): 30.00 inches Hg (1016.0 mb)
Winds: from the S (190 degrees) at 7 MPH (6 knots; 3.1 m/s)
Visibility: 6 or more miles (10+ km)
Ceiling: ceiling and visibility are OK
Clouds: unknown
Weather: no significant weather observed at this time

METAR text: ESPA 211150Z 19005KT CAVOK 07/04 Q1016
Conditions at: ESPA (KALLAX/LULEA (AF, SE) observed 1150 UTC 21 April 2019
Temperature: 7.0°C (45°F)
Dewpoint: 4.0°C (39°F) [RH = 81%]
Pressure (altimeter): 30.00 inches Hg (1016.0 mb)
Winds: from the S (190 degrees) at 6 MPH (5 knots; 2.6 m/s)
Visibility: 6 or more miles (10+ km)
Ceiling: ceiling and visibility are OK
Clouds: unknown
Weather: no significant weather observed at this time

METAR text: ESPA 211120Z 19005KT 9999 -RA FEW034 BKN047 06/04 Q1016
Conditions at: ESPA (KALLAX/LULEA (AF, SE) observed 1120 UTC 21 April 2019
Temperature: 6.0°C (43°F)
Dewpoint: 4.0°C (39°F) [RH = 87%]
Pressure (altimeter): 30.00 inches Hg (1016.0 mb)
Winds: from the S (190 degrees) at 6 MPH (5 knots; 2.6 m/s)
Visibility: 6 or more miles (10+ km)
Ceiling: 4700 feet AGL
Clouds: few clouds at 3400 feet AGL
broken clouds at 4700 feet AGL
Weather: -RA  (light rain)

METAR text: ESPA 211050Z 19004KT 9999 -SHRA VV046 08/03 Q1017
Conditions at: ESPA (KALLAX/LULEA (AF, SE) observed 1050 UTC 21 April 2019
Temperature: 8.0°C (46°F)
Dewpoint: 3.0°C (37°F) [RH = 71%]
Pressure (altimeter): 30.03 inches Hg (1017.0 mb)
Winds: from the S (190 degrees) at 5 MPH (4 knots; 2.1 m/s)
Visibility: 6 or more miles (10+ km)
Ceiling: indefinite ceiling with vertical visibility of 4600 feet AGL
Clouds: obscured sky
Weather: -SHRA  (light rain showers)

METAR text: ESPA 211020Z 20005KT 9999 -SHRA FEW017 BKN052 08/02 Q1017
Conditions at: ESPA (KALLAX/LULEA (AF, SE) observed 1020 UTC 21 April 2019
Temperature: 8.0°C (46°F)
Dewpoint: 2.0°C (36°F) [RH = 66%]
Pressure (altimeter): 30.03 inches Hg (1017.0 mb)
Winds: from the SSW (200 degrees) at 6 MPH (5 knots; 2.6 m/s)
Visibility: 6 or more miles (10+ km)
Ceiling: 5200 feet AGL
Clouds: few clouds at 1700 feet AGL
broken clouds at 5200 feet AGL
Weather: -SHRA  (light rain showers)

METAR text: ESPA 210950Z 20004KT CAVOK 07/01 Q1016
Conditions at: ESPA (KALLAX/LULEA (AF, SE) observed 0950 UTC 21 April 2019
Temperature: 7.0°C (45°F)
Dewpoint: 1.0°C (34°F) [RH = 66%]
Pressure (altimeter): 30.00 inches Hg (1016.0 mb)
Winds: from the SSW (200 degrees) at 5 MPH (4 knots; 2.1 m/s)
Visibility: 6 or more miles (10+ km)
Ceiling: ceiling and visibility are OK
Clouds: unknown
Weather: no significant weather observed at this time

METAR text: ESPA 210920Z 20004KT CAVOK 08/02 Q1016
Conditions at: ESPA (KALLAX/LULEA (AF, SE) observed 0920 UTC 21 April 2019
Temperature: 8.0°C (46°F)
Dewpoint: 2.0°C (36°F) [RH = 66%]
Pressure (altimeter): 30.00 inches Hg (1016.0 mb)
Winds: from the SSW (200 degrees) at 5 MPH (4 knots; 2.1 m/s)
Visibility: 6 or more miles (10+ km)
Ceiling: ceiling and visibility are OK
Clouds: unknown
Weather: no significant weather observed at this time

METAR text: ESPA 210850Z 20003KT CAVOK 07/01 Q1016
Conditions at: ESPA (KALLAX/LULEA (AF, SE) observed 0850 UTC 21 April 2019
Temperature: 7.0°C (45°F)
Dewpoint: 1.0°C (34°F) [RH = 66%]
Pressure (altimeter): 30.00 inches Hg (1016.0 mb)
Winds: from the SSW (200 degrees) at 3 MPH (3 knots; 1.5 m/s)
Visibility: 6 or more miles (10+ km)
Ceiling: ceiling and visibility are OK
Clouds: unknown
Weather: no significant weather observed at this time

METAR text: ESPA 210820Z 20004KT CAVOK 07/01 Q1016
Conditions at: ESPA (KALLAX/LULEA (AF, SE) observed 0820 UTC 21 April 2019
Temperature: 7.0°C (45°F)
Dewpoint: 1.0°C (34°F) [RH = 66%]
Pressure (altimeter): 30.00 inches Hg (1016.0 mb)
Winds: from the SSW (200 degrees) at 5 MPH (4 knots; 2.1 m/s)
Visibility: 6 or more miles (10+ km)
Ceiling: ceiling and visibility are OK
Clouds: unknown
Weather: no significant weather observed at this time

METAR text: ESPA 210750Z 18004KT CAVOK 07/01 Q1016
Conditions at: ESPA (KALLAX/LULEA (AF, SE) observed 0750 UTC 21 April 2019
Temperature: 7.0°C (45°F)
Dewpoint: 1.0°C (34°F) [RH = 66%]
Pressure (altimeter): 30.00 inches Hg (1016.0 mb)
Winds: from the S (180 degrees) at 5 MPH (4 knots; 2.1 m/s)
Visibility: 6 or more miles (10+ km)
Ceiling: ceiling and visibility are OK
Clouds: unknown
Weather: no significant weather observed at this time

METAR text: ESPA 210720Z 20004KT CAVOK 07/00 Q1017
Conditions at: ESPA (KALLAX/LULEA (AF, SE) observed 0720 UTC 21 April 2019
Temperature: 7.0°C (45°F)
Dewpoint: 0.0°C (32°F) [RH = 61%]
Pressure (altimeter): 30.03 inches Hg (1017.0 mb)
Winds: from the SSW (200 degrees) at 5 MPH (4 knots; 2.1 m/s)
Visibility: 6 or more miles (10+ km)
Ceiling: ceiling and visibility are OK
Clouds: unknown
Weather: no significant weather observed at this time

METAR text: ESPA 210650Z 20003KT CAVOK 06/00 Q1016
Conditions at: ESPA (KALLAX/LULEA (AF, SE) observed 0650 UTC 21 April 2019
Temperature: 6.0°C (43°F)
Dewpoint: 0.0°C (32°F) [RH = 65%]
Pressure (altimeter): 30.00 inches Hg (1016.0 mb)
Winds: from the SSW (200 degrees) at 3 MPH (3 knots; 1.5 m/s)
Visibility: 6 or more miles (10+ km)
Ceiling: ceiling and visibility are OK
Clouds: unknown
Weather: no significant weather observed at this time

METAR text: ESPA 210620Z 20002KT CAVOK 06/00 Q1017
Conditions at: ESPA (KALLAX/LULEA (AF, SE) observed 0620 UTC 21 April 2019
Temperature: 6.0°C (43°F)
Dewpoint: 0.0°C (32°F) [RH = 65%]
Pressure (altimeter): 30.03 inches Hg (1017.0 mb)
Winds: from the SSW (200 degrees) at 2 MPH (2 knots; 1.0 m/s)
Visibility: 6 or more miles (10+ km)
Ceiling: ceiling and visibility are OK
Clouds: unknown
Weather: no significant weather observed at this time

METAR text: ESPA 210550Z 19004KT CAVOK 06/M00 Q1017
Conditions at: ESPA (KALLAX/LULEA (AF, SE) observed 0550 UTC 21 April 2019
Temperature: 6.0°C (43°F)
Dewpoint: 0.0°C (32°F) [RH = 65%]
Pressure (altimeter): 30.03 inches Hg (1017.0 mb)
Winds: from the S (190 degrees) at 5 MPH (4 knots; 2.1 m/s)
Visibility: 6 or more miles (10+ km)
Ceiling: ceiling and visibility are OK
Clouds: unknown
Weather: no significant weather observed at this time

METAR text: ESPA 210520Z AUTO 20004KT 9999 OVC088/// 07/M00 Q1017
Conditions at: ESPA (KALLAX/LULEA (AF, SE) observed 0520 UTC 21 April 2019
Temperature: 7.0°C (45°F)
Dewpoint: 0.0°C (32°F) [RH = 61%]
Pressure (altimeter): 30.03 inches Hg (1017.0 mb)
Winds: from the SSW (200 degrees) at 5 MPH (4 knots; 2.1 m/s)
Visibility: 6 or more miles (10+ km)
Ceiling: 8800 feet AGL
Clouds: overcast cloud deck at 8800 feet AGL
Weather: no significant weather observed at this time

METAR text: ESPA 210450Z AUTO 20004KT 9999 OVC084/// 06/M00 Q1017
Conditions at: ESPA (KALLAX/LULEA (AF, SE) observed 0450 UTC 21 April 2019
Temperature: 6.0°C (43°F)
Dewpoint: 0.0°C (32°F) [RH = 65%]
Pressure (altimeter): 30.03 inches Hg (1017.0 mb)
Winds: from the SSW (200 degrees) at 5 MPH (4 knots; 2.1 m/s)
Visibility: 6 or more miles (10+ km)
Ceiling: 8400 feet AGL
Clouds: overcast cloud deck at 8400 feet AGL
Weather: no significant weather observed at this time

METAR text: ESPA 210420Z AUTO 17003KT 9999 OVC080/// 06/M01 Q1017
Conditions at: ESPA (KALLAX/LULEA (AF, SE) observed 0420 UTC 21 April 2019
Temperature: 6.0°C (43°F)
Dewpoint: -1.0°C (30°F) [RH = 61%]
Pressure (altimeter): 30.03 inches Hg (1017.0 mb)
Winds: from the S (170 degrees) at 3 MPH (3 knots; 1.5 m/s)
Visibility: 6 or more miles (10+ km)
Ceiling: 8000 feet AGL
Clouds: overcast cloud deck at 8000 feet AGL
Weather: no significant weather observed at this time

METAR text: ESPA 210350Z AUTO 19003KT 9999 OVC078/// 06/M00 Q1017
Conditions at: ESPA (KALLAX/LULEA (AF, SE) observed 0350 UTC 21 April 2019
Temperature: 6.0°C (43°F)
Dewpoint: 0.0°C (32°F) [RH = 65%]
Pressure (altimeter): 30.03 inches Hg (1017.0 mb)
Winds: from the S (190 degrees) at 3 MPH (3 knots; 1.5 m/s)
Visibility: 6 or more miles (10+ km)
Ceiling: 7800 feet AGL
Clouds: overcast cloud deck at 7800 feet AGL
Weather: no significant weather observed at this time

METAR text: ESPA 210320Z AUTO 21003KT 9999 OVC084/// 06/M00 Q1017
Conditions at: ESPA (KALLAX/LULEA (AF, SE) observed 0320 UTC 21 April 2019
Temperature: 6.0°C (43°F)
Dewpoint: 0.0°C (32°F) [RH = 65%]
Pressure (altimeter): 30.03 inches Hg (1017.0 mb)
Winds: from the SSW (210 degrees) at 3 MPH (3 knots; 1.5 m/s)
Visibility: 6 or more miles (10+ km)
Ceiling: 8400 feet AGL
Clouds: overcast cloud deck at 8400 feet AGL
Weather: no significant weather observed at this time

METAR text: ESPA 210250Z AUTO 18002KT 9999 OVC092/// 05/00 Q1018
Conditions at: ESPA (KALLAX/LULEA (AF, SE) observed 0250 UTC 21 April 2019
Temperature: 5.0°C (41°F)
Dewpoint: 0.0°C (32°F) [RH = 70%]
Pressure (altimeter): 30.06 inches Hg (1018.0 mb)
Winds: from the S (180 degrees) at 2 MPH (2 knots; 1.0 m/s)
Visibility: 6 or more miles (10+ km)
Ceiling: 9200 feet AGL
Clouds: overcast cloud deck at 9200 feet AGL
Weather: no significant weather observed at this time

METAR text: ESPA 210220Z AUTO 17004KT 9999 OVC086/// 05/00 Q1018
Conditions at: ESPA (KALLAX/LULEA (AF, SE) observed 0220 UTC 21 April 2019
Temperature: 5.0°C (41°F)
Dewpoint: 0.0°C (32°F) [RH = 70%]
Pressure (altimeter): 30.06 inches Hg (1018.0 mb)
Winds: from the S (170 degrees) at 5 MPH (4 knots; 2.1 m/s)
Visibility: 6 or more miles (10+ km)
Ceiling: 8600 feet AGL
Clouds: overcast cloud deck at 8600 feet AGL
Weather: no significant weather observed at this time

METAR text: ESPA 210150Z AUTO 18001KT 9999 OVC082/// 05/01 Q1018
Conditions at: ESPA (KALLAX/LULEA (AF, SE) observed 0150 UTC 21 April 2019
Temperature: 5.0°C (41°F)
Dewpoint: 1.0°C (34°F) [RH = 75%]
Pressure (altimeter): 30.06 inches Hg (1018.0 mb)
Winds: from the S (180 degrees) at 1 MPH (1 knots; 0.5 m/s)
Visibility: 6 or more miles (10+ km)
Ceiling: 8200 feet AGL
Clouds: overcast cloud deck at 8200 feet AGL
Weather: no significant weather observed at this time

METAR text: ESPA 210120Z AUTO 17002KT 9999 BKN078/// OVC090/// 04/01 Q1018
Conditions at: ESPA (KALLAX/LULEA (AF, SE) observed 0120 UTC 21 April 2019
Temperature: 4.0°C (39°F)
Dewpoint: 1.0°C (34°F) [RH = 81%]
Pressure (altimeter): 30.06 inches Hg (1018.0 mb)
Winds: from the S (170 degrees) at 2 MPH (2 knots; 1.0 m/s)
Visibility: 6 or more miles (10+ km)
Ceiling: 7800 feet AGL
Clouds: broken clouds at 7800 feet AGL
overcast cloud deck at 9000 feet AGL
Weather: no significant weather observed at this time

METAR text: ESPA 210050Z AUTO 15001KT 9999 OVC080/// 03/01 Q1019
Conditions at: ESPA (KALLAX/LULEA (AF, SE) observed 0050 UTC 21 April 2019
Temperature: 3.0°C (37°F)
Dewpoint: 1.0°C (34°F) [RH = 87%]
Pressure (altimeter): 30.09 inches Hg (1019.0 mb)
Winds: from the SSE (150 degrees) at 1 MPH (1 knots; 0.5 m/s)
Visibility: 6 or more miles (10+ km)
Ceiling: 8000 feet AGL
Clouds: overcast cloud deck at 8000 feet AGL
Weather: no significant weather observed at this time

METAR text: ESPA 210020Z AUTO 14002KT 9999 OVC082/// 02/00 Q1019
Conditions at: ESPA (KALLAX/LULEA (AF, SE) observed 0020 UTC 21 April 2019
Temperature: 2.0°C (36°F)
Dewpoint: 0.0°C (32°F) [RH = 87%]
Pressure (altimeter): 30.09 inches Hg (1019.0 mb)
Winds: from the SE (140 degrees) at 2 MPH (2 knots; 1.0 m/s)
Visibility: 6 or more miles (10+ km)
Ceiling: 8200 feet AGL
Clouds: overcast cloud deck at 8200 feet AGL
Weather: no significant weather observed at this time

METAR text: ESPA 202350Z AUTO 00000KT 9999 OVC088/// 03/01 Q1019
Conditions at: ESPA (KALLAX/LULEA (AF, SE) observed 2350 UTC 20 April 2019
Temperature: 3.0°C (37°F)
Dewpoint: 1.0°C (34°F) [RH = 87%]
Pressure (altimeter): 30.09 inches Hg (1019.0 mb)
Winds: calm
Visibility: 6 or more miles (10+ km)
Ceiling: 8800 feet AGL
Clouds: overcast cloud deck at 8800 feet AGL
Weather: no significant weather observed at this time

METAR text: ESPA 202320Z AUTO 15001KT 9999 SCT100/// 02/00 Q1020
Conditions at: ESPA (KALLAX/LULEA (AF, SE) observed 2320 UTC 20 April 2019
Temperature: 2.0°C (36°F)
Dewpoint: 0.0°C (32°F) [RH = 87%]
Pressure (altimeter): 30.12 inches Hg (1020.0 mb)
Winds: from the SSE (150 degrees) at 1 MPH (1 knots; 0.5 m/s)
Visibility: 6 or more miles (10+ km)
Ceiling: at least 12,000 feet AGL
Clouds: scattered clouds at 10000 feet AGL
Weather: no significant weather observed at this time

METAR text: ESPA 202250Z AUTO 17002KT 9999 NCD 02/01 Q1020
Conditions at: ESPA (KALLAX/LULEA (AF, SE) observed 2250 UTC 20 April 2019
Temperature: 2.0°C (36°F)
Dewpoint: 1.0°C (34°F) [RH = 93%]
Pressure (altimeter): 30.12 inches Hg (1020.0 mb)
Winds: from the S (170 degrees) at 2 MPH (2 knots; 1.0 m/s)
Visibility: 6 or more miles (10+ km)
Ceiling: at least 12,000 feet AGL
Clouds: sky clear below 12,000 feet AGL
Weather: no significant weather observed at this time

METAR text: ESPA 202220Z AUTO 17001KT 9999 NCD 03/01 Q1020
Conditions at: ESPA (KALLAX/LULEA (AF, SE) observed 2220 UTC 20 April 2019
Temperature: 3.0°C (37°F)
Dewpoint: 1.0°C (34°F) [RH = 87%]
Pressure (altimeter): 30.12 inches Hg (1020.0 mb)
Winds: from the S (170 degrees) at 1 MPH (1 knots; 0.5 m/s)
Visibility: 6 or more miles (10+ km)
Ceiling: at least 12,000 feet AGL
Clouds: sky clear below 12,000 feet AGL
Weather: no significant weather observed at this time

METAR text: ESPA 202150Z AUTO 15002KT 9999 NCD 03/01 Q1021
Conditions at: ESPA (KALLAX/LULEA (AF, SE) observed 2150 UTC 20 April 2019
Temperature: 3.0°C (37°F)
Dewpoint: 1.0°C (34°F) [RH = 87%]
Pressure (altimeter): 30.15 inches Hg (1021.0 mb)
Winds: from the SSE (150 degrees) at 2 MPH (2 knots; 1.0 m/s)
Visibility: 6 or more miles (10+ km)
Ceiling: at least 12,000 feet AGL
Clouds: sky clear below 12,000 feet AGL
Weather: no significant weather observed at this time

METAR text: ESPA 202120Z AUTO 00000KT 9999 NCD 03/01 Q1021
Conditions at: ESPA (KALLAX/LULEA (AF, SE) observed 2120 UTC 20 April 2019
Temperature: 3.0°C (37°F)
Dewpoint: 1.0°C (34°F) [RH = 87%]
Pressure (altimeter): 30.15 inches Hg (1021.0 mb)
Winds: calm
Visibility: 6 or more miles (10+ km)
Ceiling: at least 12,000 feet AGL
Clouds: sky clear below 12,000 feet AGL
Weather: no significant weather observed at this time

METAR text: ESPA 202050Z AUTO 15001KT 9999 FEW150/// 03/01 Q1021
Conditions at: ESPA (KALLAX/LULEA (AF, SE) observed 2050 UTC 20 April 2019
Temperature: 3.0°C (37°F)
Dewpoint: 1.0°C (34°F) [RH = 87%]
Pressure (altimeter): 30.15 inches Hg (1021.0 mb)
Winds: from the SSE (150 degrees) at 1 MPH (1 knots; 0.5 m/s)
Visibility: 6 or more miles (10+ km)
Ceiling: at least 12,000 feet AGL
Clouds: few clouds at 15000 feet AGL
Weather: no significant weather observed at this time

METAR text: ESPA 202020Z AUTO 00000KT 9999 NCD 02/01 Q1022
Conditions at: ESPA (KALLAX/LULEA (AF, SE) observed 2020 UTC 20 April 2019
Temperature: 2.0°C (36°F)
Dewpoint: 1.0°C (34°F) [RH = 93%]
Pressure (altimeter): 30.18 inches Hg (1022.0 mb)
Winds: calm
Visibility: 6 or more miles (10+ km)
Ceiling: at least 12,000 feet AGL
Clouds: sky clear below 12,000 feet AGL
Weather: no significant weather observed at this time

METAR text: ESPA 201950Z AUTO 15002KT 9999 NCD 03/01 Q1022
Conditions at: ESPA (KALLAX/LULEA (AF, SE) observed 1950 UTC 20 April 2019
Temperature: 3.0°C (37°F)
Dewpoint: 1.0°C (34°F) [RH = 87%]
Pressure (altimeter): 30.18 inches Hg (1022.0 mb)
Winds: from the SSE (150 degrees) at 2 MPH (2 knots; 1.0 m/s)
Visibility: 6 or more miles (10+ km)
Ceiling: at least 12,000 feet AGL
Clouds: sky clear below 12,000 feet AGL
Weather: no significant weather observed at this time

METAR text: ESPA 201920Z AUTO 00000KT 9999 NCD 03/01 Q1022
Conditions at: ESPA (KALLAX/LULEA (AF, SE) observed 1920 UTC 20 April 2019
Temperature: 3.0°C (37°F)
Dewpoint: 1.0°C (34°F) [RH = 87%]
Pressure (altimeter): 30.18 inches Hg (1022.0 mb)
Winds: calm
Visibility: 6 or more miles (10+ km)
Ceiling: at least 12,000 feet AGL
Clouds: sky clear below 12,000 feet AGL
Weather: no significant weather observed at this time

METAR text: ESPA 201850Z AUTO 18002KT 9999 NCD 03/01 Q1022
Conditions at: ESPA (KALLAX/LULEA (AF, SE) observed 1850 UTC 20 April 2019
Temperature: 3.0°C (37°F)
Dewpoint: 1.0°C (34°F) [RH = 87%]
Pressure (altimeter): 30.18 inches Hg (1022.0 mb)
Winds: from the S (180 degrees) at 2 MPH (2 knots; 1.0 m/s)
Visibility: 6 or more miles (10+ km)
Ceiling: at least 12,000 feet AGL
Clouds: sky clear below 12,000 feet AGL
Weather: no significant weather observed at this time

METAR text: ESPA 201820Z AUTO 17003KT 9999 NCD 04/01 Q1023
Conditions at: ESPA (KALLAX/LULEA (AF, SE) observed 1820 UTC 20 April 2019
Temperature: 4.0°C (39°F)
Dewpoint: 1.0°C (34°F) [RH = 81%]
Pressure (altimeter): 30.21 inches Hg (1023.0 mb)
Winds: from the S (170 degrees) at 3 MPH (3 knots; 1.5 m/s)
Visibility: 6 or more miles (10+ km)
Ceiling: at least 12,000 feet AGL
Clouds: sky clear below 12,000 feet AGL
Weather: no significant weather observed at this time

METAR text: ESPA 201750Z AUTO 18006KT 9999 NCD 05/01 Q1023
Conditions at: ESPA (KALLAX/LULEA (AF, SE) observed 1750 UTC 20 April 2019
Temperature: 5.0°C (41°F)
Dewpoint: 1.0°C (34°F) [RH = 75%]
Pressure (altimeter): 30.21 inches Hg (1023.0 mb)
Winds: from the S (180 degrees) at 7 MPH (6 knots; 3.1 m/s)
Visibility: 6 or more miles (10+ km)
Ceiling: at least 12,000 feet AGL
Clouds: sky clear below 12,000 feet AGL
Weather: no significant weather observed at this time

METAR text: ESPA 201720Z AUTO 15005KT 9999 NCD 05/01 Q1023
Conditions at: ESPA (KALLAX/LULEA (AF, SE) observed 1720 UTC 20 April 2019
Temperature: 5.0°C (41°F)
Dewpoint: 1.0°C (34°F) [RH = 75%]
Pressure (altimeter): 30.21 inches Hg (1023.0 mb)
Winds: from the SSE (150 degrees) at 6 MPH (5 knots; 2.6 m/s)
Visibility: 6 or more miles (10+ km)
Ceiling: at least 12,000 feet AGL
Clouds: sky clear below 12,000 feet AGL
Weather: no significant weather observed at this time

METAR text: ESPA 201650Z AUTO 18006KT 9999 NCD 06/01 Q1023
Conditions at: ESPA (KALLAX/LULEA (AF, SE) observed 1650 UTC 20 April 2019
Temperature: 6.0°C (43°F)
Dewpoint: 1.0°C (34°F) [RH = 70%]
Pressure (altimeter): 30.21 inches Hg (1023.0 mb)
Winds: from the S (180 degrees) at 7 MPH (6 knots; 3.1 m/s)
Visibility: 6 or more miles (10+ km)
Ceiling: at least 12,000 feet AGL
Clouds: sky clear below 12,000 feet AGL
Weather: no significant weather observed at this time

METAR text: ESPA 201620Z AUTO 18006KT 9999 NCD 08/01 Q1024
Conditions at: ESPA (KALLAX/LULEA (AF, SE) observed 1620 UTC 20 April 2019
Temperature: 8.0°C (46°F)
Dewpoint: 1.0°C (34°F) [RH = 61%]
Pressure (altimeter): 30.24 inches Hg (1024.0 mb)
Winds: from the S (180 degrees) at 7 MPH (6 knots; 3.1 m/s)
Visibility: 6 or more miles (10+ km)
Ceiling: at least 12,000 feet AGL
Clouds: sky clear below 12,000 feet AGL
Weather: no significant weather observed at this time

METAR text: ESPA 201550Z AUTO 18006KT 9999 NCD 09/02 Q1024
Conditions at: ESPA (KALLAX/LULEA (AF, SE) observed 1550 UTC 20 April 2019
Temperature: 9.0°C (48°F)
Dewpoint: 2.0°C (36°F) [RH = 61%]
Pressure (altimeter): 30.24 inches Hg (1024.0 mb)
Winds: from the S (180 degrees) at 7 MPH (6 knots; 3.1 m/s)
Visibility: 6 or more miles (10+ km)
Ceiling: at least 12,000 feet AGL
Clouds: sky clear below 12,000 feet AGL
Weather: no significant weather observed at this time

METAR text: ESPA 201520Z AUTO 19006KT 9999 NCD 09/02 Q1025
Conditions at: ESPA (KALLAX/LULEA (AF, SE) observed 1520 UTC 20 April 2019
Temperature: 9.0°C (48°F)
Dewpoint: 2.0°C (36°F) [RH = 61%]
Pressure (altimeter): 30.27 inches Hg (1025.0 mb)
Winds: from the S (190 degrees) at 7 MPH (6 knots; 3.1 m/s)
Visibility: 6 or more miles (10+ km)
Ceiling: at least 12,000 feet AGL
Clouds: sky clear below 12,000 feet AGL
Weather: no significant weather observed at this time

Forecast for: ESPA (KALLAX/LULEA (AF, SE)
Text: TAF ESPA 212030Z 2121/2123 23005KT CAVOK
Forecast period: 2100 to 2300 UTC 21 April 2019
Forecast type: FROM: standard forecast or significant change
Winds: from the SW (230 degrees) at 6 MPH (5 knots; 2.6 m/s)
Visibility: 6 or more miles 10+ km)
Ceiling: unknown
Clouds: missing
Weather: NSW  (no significant weather)